Time;durP1;ratioP1;P1;durP2;ratioP2;P2;SDS_P1;SDS_P2;PMS_P1;PMS_P2;Temp;Humidity;BMP_temperature;BMP_pressure;BME280_temperature;BME280_humidity;BME280_pressure;Samples;Min_cycle;Max_cycle;Signal;HPM_P1;HPM_P2
2023/08/28 00:02:13;;;;;;;2.40;0.55;;;;;;;26.37;41.57;99388.72;5093928;28;20032;-71
2023/08/28 00:04:38;;;;;;;1.27;0.60;;;;;;;26.36;41.44;99376.31;5094135;28;20383;-71
2023/08/28 00:07:03;;;;;;;0.63;0.35;;;;;;;26.37;41.29;99387.84;5094197;28;20051;-71
2023/08/28 00:09:29;;;;;;;1.05;0.52;;;;;;;26.34;41.59;99388.13;5094231;28;20039;-70
2023/08/28 00:11:55;;;;;;;1.83;0.60;;;;;;;26.35;41.43;99389.81;5094146;28;20040;-71
2023/08/28 00:14:20;;;;;;;1.65;0.70;;;;;;;26.33;41.62;99389.13;5093835;28;20052;-71
2023/08/28 00:16:46;;;;;;;2.50;0.77;;;;;;;26.32;41.30;99382.03;5093712;28;20031;-72
2023/08/28 00:19:11;;;;;;;2.00;0.60;;;;;;;26.31;41.54;99378.53;5092521;28;20024;-71
2023/08/28 00:21:37;;;;;;;2.72;0.60;;;;;;;26.31;41.44;99388.38;5093851;28;20476;-71
2023/08/28 00:24:04;;;;;;;1.70;0.55;;;;;;;26.30;41.43;99378.66;5093874;28;20028;-71
2023/08/28 00:26:30;;;;;;;2.45;0.68;;;;;;;26.29;41.41;99385.00;5093835;28;20499;-70
2023/08/28 00:28:55;;;;;;;1.05;0.40;;;;;;;26.30;41.53;99376.00;5093702;28;20024;-71
2023/08/28 00:31:20;;;;;;;1.80;0.50;;;;;;;26.27;41.66;99372.59;5093399;28;20077;-71
2023/08/28 00:33:46;;;;;;;3.42;0.90;;;;;;;26.29;41.68;99377.81;5093495;28;20412;-71
2023/08/28 00:36:11;;;;;;;1.73;0.55;;;;;;;26.28;41.32;99376.13;5093860;28;20103;-71
2023/08/28 00:38:36;;;;;;;1.35;0.40;;;;;;;26.26;41.63;99360.19;5093681;28;20028;-71
2023/08/28 00:41:03;;;;;;;1.05;0.52;;;;;;;26.26;41.35;99370.06;5092381;28;20388;-71
2023/08/28 00:43:28;;;;;;;1.55;0.40;;;;;;;26.26;41.67;99370.88;5093834;28;20047;-71
2023/08/28 00:45:55;;;;;;;2.25;0.75;;;;;;;26.25;41.50;99363.03;5091300;28;20448;-71
2023/08/28 00:48:21;;;;;;;0.98;0.40;;;;;;;26.23;41.63;99365.81;5093601;28;20024;-72
2023/08/28 00:50:48;;;;;;;4.75;0.60;;;;;;;26.23;41.50;99360.47;5093517;28;20427;-70
2023/08/28 00:53:13;;;;;;;1.90;0.52;;;;;;;26.23;41.63;99363.13;5093269;28;20031;-71
2023/08/28 00:55:40;;;;;;;1.45;0.60;;;;;;;26.24;41.52;99356.81;5093281;28;20024;-70
2023/08/28 00:58:05;;;;;;;2.17;0.55;;;;;;;26.22;41.54;99353.41;5093302;28;20395;-72
2023/08/28 01:00:31;;;;;;;2.00;0.52;;;;;;;26.21;41.67;99357.06;5092519;28;20043;-71
2023/08/28 01:02:57;;;;;;;2.15;0.40;;;;;;;26.22;41.60;99358.75;5093186;28;20536;-71
2023/08/28 01:05:42;;;;;;;2.80;0.68;;;;;;;26.22;41.65;99361.41;5093131;28;20024;-72
2023/08/28 01:08:35;;;;;;;1.98;0.60;;;;;;;26.22;41.49;99357.88;5093004;28;20020;-71
2023/08/28 01:11:13;;;;;;;2.05;0.70;;;;;;;26.20;41.54;99355.34;5093080;28;20042;-72
2023/08/28 01:13:56;;;;;;;2.45;0.70;;;;;;;26.17;41.84;99358.28;5092400;28;20613;-71
2023/08/28 01:16:26;;;;;;;2.10;0.60;;;;;;;26.16;41.67;99359.25;5092977;28;20035;-71
2023/08/28 01:18:52;;;;;;;2.03;0.60;;;;;;;26.14;41.57;99366.56;5092868;28;20087;-70
2023/08/28 01:21:18;;;;;;;3.10;0.70;;;;;;;26.16;41.61;99358.41;5091346;28;20444;-72
2023/08/28 01:24:00;;;;;;;2.35;0.63;;;;;;;26.16;41.70;99359.25;5092921;28;20031;-72
2023/08/28 01:26:25;;;;;;;2.22;0.63;;;;;;;26.18;41.66;99361.78;5092640;28;20027;-71
2023/08/28 01:28:51;;;;;;;3.25;0.57;;;;;;;26.13;41.69;99360.38;5092405;28;20110;-71
2023/08/28 01:31:16;;;;;;;2.30;0.63;;;;;;;26.14;41.79;99361.19;5092504;28;20032;-71
2023/08/28 01:33:43;;;;;;;1.90;0.55;;;;;;;26.13;41.86;99348.81;5091415;28;20500;-72
2023/08/28 01:36:13;;;;;;;1.52;0.50;;;;;;;26.13;41.70;99356.84;5092544;28;20111;-71
2023/08/28 01:38:49;;;;;;;1.70;0.40;;;;;;;26.11;41.89;99362.31;5092469;28;20056;-71
2023/08/28 01:41:18;;;;;;;3.08;0.73;;;;;;;26.11;41.70;99358.81;5092256;28;20024;-71
2023/08/28 01:43:48;;;;;;;1.33;0.43;;;;;;;26.11;41.88;99361.47;5091988;28;20081;-70
2023/08/28 01:46:15;;;;;;;2.10;0.60;;;;;;;26.10;41.55;99360.63;5092575;28;20053;-72
2023/08/28 01:48:46;;;;;;;2.90;0.63;;;;;;;26.10;41.90;99365.97;5092423;28;20027;-71
2023/08/28 01:51:12;;;;;;;2.30;0.63;;;;;;;26.08;41.65;99353.69;5092447;28;20020;-71
2023/08/28 01:53:37;;;;;;;1.45;0.52;;;;;;;26.08;41.79;99356.38;5092245;28;20484;-71
2023/08/28 01:56:09;;;;;;;2.90;0.63;;;;;;;26.06;41.77;99355.66;5090906;28;20028;-72
2023/08/28 01:58:41;;;;;;;1.92;0.68;;;;;;;26.05;42.09;99352.13;5091920;28;20016;-71
2023/08/28 02:01:07;;;;;;;3.85;0.75;;;;;;;26.08;41.79;99353.69;5091898;28;20083;-72
2023/08/28 02:03:32;;;;;;;3.08;0.90;;;;;;;26.06;42.02;99342.31;5092252;28;20066;-71
2023/08/28 02:05:58;;;;;;;2.40;0.60;;;;;;;26.05;42.01;99340.63;5091927;28;20036;-70
2023/08/28 02:08:23;;;;;;;1.85;0.63;;;;;;;26.04;42.04;99337.06;5092006;28;20510;-72
2023/08/28 02:10:49;;;;;;;1.52;0.40;;;;;;;26.04;41.86;99336.25;5092189;28;20040;-71
2023/08/28 02:13:14;;;;;;;3.33;0.73;;;;;;;26.01;42.10;99335.50;5091771;28;20035;-71
2023/08/28 02:15:39;;;;;;;2.25;0.70;;;;;;;26.03;41.93;99331.84;5092168;28;20113;-72
2023/08/28 02:18:05;;;;;;;2.03;0.68;;;;;;;26.01;42.04;99335.50;5092182;28;20024;-70
2023/08/28 02:20:32;;;;;;;2.78;0.50;;;;;;;26.03;42.07;99337.19;5091738;28;20054;-71
2023/08/28 02:22:57;;;;;;;2.65;0.63;;;;;;;25.99;42.20;99340.16;5092014;28;20036;-71
2023/08/28 02:25:23;;;;;;;3.13;0.85;;;;;;;26.01;41.95;99350.72;5091841;28;20020;-71
2023/08/28 02:27:49;;;;;;;2.35;0.57;;;;;;;25.98;42.03;99351.81;5091981;28;20110;-70
2023/08/28 02:30:18;;;;;;;1.85;0.50;;;;;;;25.99;41.96;99356.19;5091952;28;20031;-71
2023/08/28 02:32:44;;;;;;;2.58;0.70;;;;;;;25.97;42.12;99344.78;5092009;28;20034;-71
2023/08/28 02:35:11;;;;;;;2.30;0.75;;;;;;;25.98;41.89;99365.19;5092016;28;20384;-71
2023/08/28 02:37:37;;;;;;;1.60;0.55;;;;;;;25.99;41.90;99369.56;5091782;28;20031;-70
2023/08/28 02:40:03;;;;;;;2.25;0.60;;;;;;;25.97;42.16;99360.81;5091471;28;20028;-72
2023/08/28 02:42:28;;;;;;;1.60;0.63;;;;;;;25.96;41.88;99368.97;5091564;28;20101;-71
2023/08/28 02:44:54;;;;;;;3.67;0.68;;;;;;;25.95;42.10;99368.09;5092012;28;20106;-72
2023/08/28 02:47:19;;;;;;;3.03;0.60;;;;;;;25.94;42.30;99362.88;5091730;28;20108;-71
2023/08/28 02:49:45;;;;;;;2.38;0.70;;;;;;;25.93;42.06;99364.72;5091734;28;20048;-70
2023/08/28 02:52:10;;;;;;;2.25;0.70;;;;;;;25.92;42.23;99363.03;5091888;28;20027;-71
2023/08/28 02:54:35;;;;;;;2.03;0.57;;;;;;;25.93;42.09;99371.88;5091400;28;20567;-71
2023/08/28 02:57:01;;;;;;;2.47;0.60;;;;;;;25.91;42.28;99366.66;5091671;28;20024;-72
2023/08/28 02:59:27;;;;;;;1.80;0.60;;;;;;;25.91;42.28;99371.19;5091887;28;20062;-71
2023/08/28 03:01:53;;;;;;;2.13;0.60;;;;;;;25.89;42.06;99368.63;5091470;28;20442;-71
2023/08/28 03:04:18;;;;;;;2.90;0.60;;;;;;;25.90;42.36;99364.97;5091443;28;20077;-71
2023/08/28 03:06:44;;;;;;;1.27;0.52;;;;;;;25.89;41.81;99368.63;5091626;28;20024;-72
2023/08/28 03:09:09;;;;;;;1.35;0.50;;;;;;;25.90;42.05;99369.47;5093155;28;20027;-71
2023/08/28 03:11:35;;;;;;;2.58;0.55;;;;;;;25.87;42.07;99366.06;5095137;28;20032;-71
2023/08/28 03:14:01;;;;;;;1.10;0.40;;;;;;;25.87;42.45;99360.72;5094907;28;20020;-71
2023/08/28 03:16:27;;;;;;;2.53;0.70;;;;;;;25.87;42.34;99370.59;5093887;28;20024;-71
2023/08/28 03:18:52;;;;;;;2.50;0.60;;;;;;;25.86;42.29;99371.56;5095169;28;20020;-71
2023/08/28 03:21:18;;;;;;;1.88;0.60;;;;;;;25.85;42.09;99364.50;5095128;28;20145;-71
2023/08/28 03:23:43;;;;;;;1.80;0.60;;;;;;;25.86;42.18;99368.91;5094795;28;20415;-71
2023/08/28 03:26:08;;;;;;;1.80;0.45;;;;;;;25.85;42.42;99367.16;5095155;28;20046;-70
2023/08/28 03:28:34;;;;;;;2.90;0.73;;;;;;;25.82;42.38;99362.09;5094947;28;20073;-71
2023/08/28 03:31:00;;;;;;;3.80;0.80;;;;;;;25.83;42.44;99363.78;5094727;28;20109;-71
2023/08/28 03:33:26;;;;;;;2.38;0.63;;;;;;;25.82;42.48;99362.09;5094837;28;20024;-71
2023/08/28 03:35:51;;;;;;;1.42;0.55;;;;;;;25.83;42.32;99363.78;5094740;28;20021;-71
2023/08/28 03:38:18;;;;;;;1.70;0.60;;;;;;;25.82;42.25;99362.94;5094458;28;20028;-71
2023/08/28 03:40:44;;;;;;;1.30;0.40;;;;;;;25.82;42.48;99362.09;5094457;28;20035;-72
2023/08/28 03:43:10;;;;;;;1.92;0.70;;;;;;;25.81;42.35;99357.75;5094550;28;20032;-71
2023/08/28 03:45:35;;;;;;;1.75;0.57;;;;;;;25.82;42.14;99364.78;5094792;28;20102;-71
2023/08/28 03:48:00;;;;;;;3.20;0.85;;;;;;;25.80;42.17;99356.03;5094345;28;20158;-71
2023/08/28 03:50:29;;;;;;;1.50;0.60;;;;;;;25.80;42.37;99354.19;5094447;28;20027;-71
2023/08/28 03:52:55;;;;;;;2.17;0.90;;;;;;;25.80;42.42;99350.69;5094199;28;20028;-71
2023/08/28 03:55:21;;;;;;;1.15;0.40;;;;;;;25.78;42.01;99350.81;5094431;28;20536;-71
2023/08/28 03:57:46;;;;;;;2.45;0.57;;;;;;;25.79;42.37;99351.66;5094235;28;20016;-72
2023/08/28 04:00:14;;;;;;;2.17;0.80;;;;;;;25.78;42.37;99339.28;5094199;28;20048;-71
2023/08/28 04:02:40;;;;;;;3.53;0.70;;;;;;;25.78;42.32;99339.28;5094167;28;20059;-71
2023/08/28 04:05:06;;;;;;;2.15;0.70;;;;;;;25.76;42.42;99334.03;5093947;28;20059;-71
2023/08/28 04:07:32;;;;;;;2.85;0.63;;;;;;;25.77;42.20;99343.78;5093807;28;20085;-72
2023/08/28 04:10:00;;;;;;;2.75;0.82;;;;;;;25.77;42.49;99337.59;5094183;28;20027;-72
2023/08/28 04:12:26;;;;;;;2.35;0.70;;;;;;;25.76;42.39;99336.72;5094215;28;20040;-72
2023/08/28 04:14:52;;;;;;;1.67;0.60;;;;;;;25.76;42.27;99335.88;5093968;28;20055;-71
2023/08/28 04:17:17;;;;;;;2.10;0.55;;;;;;;25.76;42.28;99336.72;5094040;28;20032;-72
2023/08/28 04:19:43;;;;;;;1.13;0.40;;;;;;;25.74;42.24;99339.53;5093836;28;20484;-71
2023/08/28 04:22:08;;;;;;;2.20;0.70;;;;;;;25.73;42.54;99332.47;5093525;28;20039;-72
2023/08/28 04:24:34;;;;;;;2.00;0.73;;;;;;;25.73;42.31;99337.81;5093933;28;20059;-71
2023/08/28 04:26:59;;;;;;;2.17;0.70;;;;;;;25.73;42.33;99332.47;5093796;28;20522;-72
2023/08/28 04:29:24;;;;;;;2.58;0.63;;;;;;;25.72;42.25;99336.13;5093684;28;20468;-70
2023/08/28 04:31:50;;;;;;;1.38;0.45;;;;;;;25.72;42.35;99336.13;5093699;28;20024;-71
2023/08/28 04:34:16;;;;;;;1.67;0.60;;;;;;;25.70;42.58;99326.53;5092441;28;20085;-71
2023/08/28 04:36:41;;;;;;;2.83;0.68;;;;;;;25.70;42.32;99316.72;5093467;28;20032;-71
2023/08/28 04:39:07;;;;;;;2.50;0.60;;;;;;;25.71;42.34;99333.59;5093653;28;20087;-71
2023/08/28 04:41:33;;;;;;;3.20;0.90;;;;;;;25.70;42.45;99338.09;5093602;28;20085;-71
2023/08/28 04:43:58;;;;;;;2.45;0.85;;;;;;;25.70;42.69;99335.41;5093597;28;20044;-69
2023/08/28 04:46:25;;;;;;;2.45;0.52;;;;;;;25.69;42.71;99333.72;5093439;28;20488;-70
2023/08/28 04:48:51;;;;;;;3.20;0.90;;;;;;;25.67;42.50;99335.66;5093469;28;20048;-72
2023/08/28 04:51:16;;;;;;;2.67;0.57;;;;;;;25.66;42.61;99339.31;5092919;28;20032;-71
2023/08/28 04:53:42;;;;;;;2.55;0.57;;;;;;;25.66;42.53;99335.81;5093301;28;20460;-71
2023/08/28 04:56:07;;;;;;;2.65;0.50;;;;;;;25.65;42.60;99337.63;5093139;28;20028;-71
2023/08/28 04:58:33;;;;;;;2.13;0.55;;;;;;;25.66;42.71;99335.81;5093195;28;20034;-71
2023/08/28 05:00:59;;;;;;;2.08;0.60;;;;;;;25.64;42.75;99333.25;5092875;28;20425;-71
2023/08/28 05:03:25;;;;;;;2.10;0.70;;;;;;;25.64;42.33;99327.91;5093036;28;20077;-73
2023/08/28 05:05:51;;;;;;;1.23;0.60;;;;;;;25.64;42.60;99333.25;5092900;28;20027;-71
2023/08/28 05:08:16;;;;;;;1.77;0.43;;;;;;;25.63;42.54;99320.88;5093084;28;20081;-71
2023/08/28 05:10:41;;;;;;;1.73;0.60;;;;;;;25.65;42.47;99326.94;5093094;28;20035;-71
2023/08/28 05:13:07;;;;;;;1.85;0.63;;;;;;;25.63;42.72;99328.91;5092825;28;20035;-72
2023/08/28 05:15:32;;;;;;;1.48;0.45;;;;;;;25.63;42.51;99326.22;5092962;28;20028;-71
2023/08/28 05:17:57;;;;;;;2.25;0.80;;;;;;;25.63;42.58;99320.88;5092759;28;20422;-70
2023/08/28 05:20:23;;;;;;;3.22;0.88;;;;;;;25.60;42.61;99315.78;5092358;28;20078;-71
2023/08/28 05:22:48;;;;;;;2.60;0.70;;;;;;;25.61;42.71;99312.13;5092807;28;20024;-72
2023/08/28 05:25:14;;;;;;;2.72;1.08;;;;;;;25.59;42.59;99312.28;5092701;28;20036;-71
2023/08/28 05:27:39;;;;;;;2.88;0.90;;;;;;;25.59;42.51;99316.75;5092755;28;20031;-72
2023/08/28 05:30:06;;;;;;;2.55;0.60;;;;;;;25.57;42.67;99316.06;5092561;28;20507;-71
2023/08/28 05:32:32;;;;;;;2.80;0.80;;;;;;;25.59;42.68;99319.44;5092160;28;20031;-71
2023/08/28 05:34:58;;;;;;;3.70;0.88;;;;;;;25.59;42.64;99319.44;5092246;28;20032;-69
2023/08/28 05:37:25;;;;;;;2.33;0.63;;;;;;;25.58;42.52;99323.09;5092545;28;20027;-71
2023/08/28 05:39:51;;;;;;;1.85;0.63;;;;;;;25.57;42.77;99316.06;5092313;28;20024;-69
2023/08/28 05:42:16;;;;;;;3.13;0.77;;;;;;;25.57;42.71;99308.88;5092346;28;20039;-71
2023/08/28 05:44:42;;;;;;;1.83;0.55;;;;;;;25.55;42.71;99309.97;5092293;28;20038;-72
2023/08/28 05:47:08;;;;;;;2.60;0.70;;;;;;;25.56;42.59;99303.69;5092059;28;20425;-72
2023/08/28 05:49:34;;;;;;;3.03;0.65;;;;;;;25.56;42.76;99303.69;5092237;28;20073;-71
2023/08/28 05:51:59;;;;;;;3.13;1.10;;;;;;;25.54;42.65;99301.13;5092355;28;20020;-71
2023/08/28 05:54:25;;;;;;;2.22;0.80;;;;;;;25.55;42.79;99307.28;5092316;28;20028;-71
2023/08/28 05:56:51;;;;;;;1.88;0.55;;;;;;;25.52;42.91;99288.84;5092124;28;20026;-71
2023/08/28 05:59:16;;;;;;;2.38;0.65;;;;;;;25.54;42.59;99289.56;5092013;28;20024;-71
2023/08/28 06:01:42;;;;;;;3.28;0.80;;;;;;;25.54;42.62;99297.59;5091858;28;20048;-71
2023/08/28 06:04:07;;;;;;;2.15;0.60;;;;;;;25.51;42.92;99301.31;5091820;28;20074;-71
2023/08/28 06:06:32;;;;;;;3.47;1.00;;;;;;;25.52;42.71;99294.19;5091905;28;20020;-71
2023/08/28 06:09:03;;;;;;;2.03;0.50;;;;;;;25.51;42.68;99300.50;5092130;28;20076;-72
2023/08/28 06:11:29;;;;;;;3.42;0.93;;;;;;;25.50;42.67;99298.78;5091959;28;20016;-70
2023/08/28 06:13:54;;;;;;;1.63;0.70;;;;;;;25.50;42.86;99294.28;5091991;28;20027;-70
2023/08/28 06:16:19;;;;;;;2.85;0.88;;;;;;;25.52;42.78;99304.88;5092096;28;20107;-71
2023/08/28 06:18:45;;;;;;;3.03;0.77;;;;;;;25.48;42.69;99301.59;5091837;28;20023;-70
2023/08/28 06:21:10;;;;;;;2.63;0.80;;;;;;;25.48;42.70;99296.25;5092065;28;20090;-70
2023/08/28 06:23:35;;;;;;;2.50;0.80;;;;;;;25.48;42.84;99291.75;5090940;28;20029;-72
2023/08/28 06:26:01;;;;;;;2.17;0.45;;;;;;;25.49;42.52;99292.59;5092128;28;20384;-70
2023/08/28 06:28:26;;;;;;;2.78;0.85;;;;;;;25.47;42.74;99290.06;5090453;28;20020;-72
2023/08/28 06:30:51;;;;;;;2.58;0.70;;;;;;;25.47;42.76;99290.06;5092098;28;20028;-72
2023/08/28 06:33:17;;;;;;;2.08;0.75;;;;;;;25.48;42.95;99301.59;5091684;28;20028;-71
2023/08/28 06:35:42;;;;;;;1.80;0.70;;;;;;;25.46;42.82;99288.38;5091911;28;20035;-71
2023/08/28 06:38:08;;;;;;;2.42;0.80;;;;;;;25.46;42.83;99303.53;5091793;28;20074;-72
2023/08/28 06:40:33;;;;;;;2.38;0.60;;;;;;;25.46;42.94;99293.72;5091629;28;20028;-71
2023/08/28 06:42:59;;;;;;;2.08;0.70;;;;;;;25.45;42.81;99288.47;5092341;28;20024;-71
2023/08/28 06:45:24;;;;;;;2.10;0.60;;;;;;;25.45;42.75;99286.69;5094510;28;20051;-70
2023/08/28 06:47:49;;;;;;;2.20;0.80;;;;;;;25.44;42.87;99290.31;5095215;28;20034;-72
2023/08/28 06:50:15;;;;;;;3.38;0.90;;;;;;;25.44;42.97;99287.66;5095804;28;20032;-72
2023/08/28 06:52:40;;;;;;;3.33;0.90;;;;;;;25.43;42.84;99291.28;5095607;28;20024;-72
2023/08/28 06:55:06;;;;;;;2.33;0.50;;;;;;;25.42;43.00;99292.25;5095384;28;20516;-71
2023/08/28 06:57:32;;;;;;;3.58;0.90;;;;;;;25.43;43.02;99293.13;5095680;28;20031;-72
2023/08/28 06:59:57;;;;;;;3.08;0.80;;;;;;;25.42;42.83;99289.59;5095269;28;20035;-71
2023/08/28 07:02:22;;;;;;;3.03;1.05;;;;;;;25.40;43.03;99291.53;5095235;28;20027;-72
2023/08/28 07:04:48;;;;;;;1.45;0.50;;;;;;;25.40;42.93;99291.53;5095487;28;20400;-71
2023/08/28 07:07:18;;;;;;;2.35;0.60;;;;;;;25.41;42.78;99295.91;5095392;28;20494;-71
2023/08/28 07:09:43;;;;;;;3.20;1.02;;;;;;;25.40;43.03;99296.88;5095282;28;20498;-72
2023/08/28 07:12:09;;;;;;;2.25;0.75;;;;;;;25.39;42.87;99289.84;5095199;28;20021;-72
2023/08/28 07:14:34;;;;;;;2.80;0.80;;;;;;;25.40;43.17;99293.34;5095246;28;20032;-71
2023/08/28 07:17:00;;;;;;;2.35;0.65;;;;;;;25.39;42.69;99292.53;5094839;28;20028;-72
2023/08/28 07:19:26;;;;;;;3.85;0.80;;;;;;;25.38;42.80;99288.16;5095109;28;20507;-72
2023/08/28 07:21:51;;;;;;;3.30;0.75;;;;;;;25.40;42.96;99288.00;5095159;28;20039;-72
2023/08/28 07:24:17;;;;;;;2.25;0.65;;;;;;;25.38;42.98;99285.50;5095005;28;20688;-72
2023/08/28 07:26:42;;;;;;;2.25;0.70;;;;;;;25.38;42.94;99281.97;5094985;28;20020;-70
2023/08/28 07:29:08;;;;;;;1.83;0.63;;;;;;;25.37;43.17;99278.44;5095007;28;20028;-72
2023/08/28 07:31:33;;;;;;;1.63;0.50;;;;;;;25.37;42.69;99275.75;5094471;28;20476;-71
2023/08/28 07:33:59;;;;;;;2.55;0.80;;;;;;;25.36;43.02;99282.09;5094692;28;20028;-72
2023/08/28 07:36:24;;;;;;;1.98;0.60;;;;;;;25.36;43.17;99271.41;5094892;28;20054;-71
2023/08/28 07:38:50;;;;;;;2.13;0.70;;;;;;;25.34;43.02;99276.84;5094749;28;20028;-71
2023/08/28 07:41:18;;;;;;;1.20;0.50;;;;;;;25.34;43.15;99268.84;5094723;28;20050;-71
2023/08/28 07:43:44;;;;;;;2.30;0.90;;;;;;;25.34;43.13;99276.84;5094733;28;20576;-70
2023/08/28 07:46:10;;;;;;;2.97;1.15;;;;;;;25.33;43.09;99275.16;5094476;28;20120;-71
2023/08/28 07:48:35;;;;;;;2.33;1.05;;;;;;;25.35;42.80;99275.06;5094623;28;20569;-71
2023/08/28 07:51:00;;;;;;;1.98;0.70;;;;;;;25.36;42.81;99276.75;5094573;28;20388;-71
2023/08/28 07:53:26;;;;;;;2.92;0.63;;;;;;;25.33;43.18;99267.16;5094369;28;20021;-70
2023/08/28 07:55:51;;;;;;;1.73;0.60;;;;;;;25.33;42.82;99271.66;5094107;28;20107;-71
2023/08/28 07:58:18;;;;;;;1.67;0.73;;;;;;;25.32;42.98;99269.94;5094440;28;20020;-71
2023/08/28 08:00:44;;;;;;;3.13;0.80;;;;;;;25.33;43.07;99266.31;5093904;28;20499;-71
2023/08/28 08:03:10;;;;;;;2.15;0.90;;;;;;;25.32;43.08;99269.94;5094150;28;20107;-71
2023/08/28 08:05:35;;;;;;;2.17;0.60;;;;;;;25.30;43.13;99275.44;5094376;28;20289;-72
2023/08/28 08:08:00;;;;;;;1.73;0.60;;;;;;;25.31;43.29;99273.59;5094252;28;20020;-70
2023/08/28 08:10:26;;;;;;;2.15;0.70;;;;;;;25.30;43.10;99267.44;5092908;28;20670;-72
2023/08/28 08:12:51;;;;;;;1.42;0.65;;;;;;;25.29;43.39;99272.88;5094113;28;20032;-71
2023/08/28 08:15:17;;;;;;;2.20;0.60;;;;;;;25.31;42.91;99268.25;5093629;28;20024;-71
2023/08/28 08:17:42;;;;;;;2.03;0.60;;;;;;;25.30;43.30;99267.44;5094117;28;20419;-71
2023/08/28 08:20:10;;;;;;;2.03;0.55;;;;;;;25.31;43.28;99262.91;5094076;28;20718;-71
2023/08/28 08:22:40;;;;;;;2.15;0.68;;;;;;;25.32;43.28;99267.28;5093949;28;20034;-71
2023/08/28 08:25:06;;;;;;;1.38;0.43;;;;;;;25.30;43.05;99267.44;5093910;28;20027;-71
2023/08/28 08:27:32;;;;;;;1.92;0.77;;;;;;;25.30;43.22;99261.22;5093861;28;20679;-71
2023/08/28 08:29:57;;;;;;;1.92;0.70;;;;;;;25.29;43.17;99264.88;5093835;28;20069;-70
2023/08/28 08:32:23;;;;;;;1.55;0.60;;;;;;;25.27;43.30;99264.16;5093951;28;20058;-71
2023/08/28 08:34:48;;;;;;;2.60;0.90;;;;;;;25.28;43.16;99264.00;5093871;28;20491;-71
2023/08/28 08:37:15;;;;;;;1.92;0.70;;;;;;;25.26;42.83;99262.44;5093779;28;20515;-71
2023/08/28 08:39:41;;;;;;;1.25;0.52;;;;;;;25.28;43.15;99269.34;5093421;28;20583;-71
2023/08/28 08:42:07;;;;;;;1.45;0.47;;;;;;;25.27;42.96;99262.31;5093720;28;20028;-71
2023/08/28 08:44:33;;;;;;;2.15;0.70;;;;;;;25.27;43.29;99269.50;5093053;28;20031;-71
2023/08/28 08:47:02;;;;;;;1.55;0.60;;;;;;;25.28;43.04;99279.22;5093476;28;20380;-71
2023/08/28 08:49:31;;;;;;;1.70;0.68;;;;;;;25.28;43.10;99273.88;5093483;28;20047;-71
2023/08/28 08:52:00;;;;;;;1.92;0.60;;;;;;;25.28;43.10;99268.53;5093424;28;20043;-71
2023/08/28 08:54:31;;;;;;;2.10;0.60;;;;;;;25.27;43.23;99272.19;5093380;28;20032;-71
2023/08/28 08:57:04;;;;;;;1.52;0.60;;;;;;;25.27;43.09;99265.00;5093035;28;20093;-71
2023/08/28 08:59:32;;;;;;;1.08;0.45;;;;;;;25.26;43.19;99271.31;5093196;28;20395;-72
2023/08/28 09:02:02;;;;;;;1.30;0.52;;;;;;;25.27;43.13;99265.00;5093032;28;20108;-71
2023/08/28 09:04:28;;;;;;;1.30;0.60;;;;;;;25.26;43.25;99270.47;5093016;28;20040;-71
2023/08/28 09:06:55;;;;;;;1.20;0.50;;;;;;;25.27;43.19;99273.00;5092421;28;20028;-71
2023/08/28 09:09:21;;;;;;;1.67;0.50;;;;;;;25.28;42.91;99276.53;5093044;28;20499;-71
2023/08/28 09:11:48;;;;;;;1.40;0.50;;;;;;;25.28;42.97;99276.53;5092785;28;20492;-71
2023/08/28 09:14:14;;;;;;;2.30;0.73;;;;;;;25.26;43.03;99283.81;5092915;28;20035;-71
2023/08/28 09:16:40;;;;;;;2.13;0.60;;;;;;;25.27;43.10;99277.53;5092793;28;20484;-71
2023/08/28 09:19:07;;;;;;;1.33;0.50;;;;;;;25.27;43.15;99275.69;5092713;28;20020;-69
2023/08/28 09:21:38;;;;;;;1.90;0.57;;;;;;;25.26;43.38;99265.97;5092836;28;20020;-71
2023/08/28 09:24:09;;;;;;;1.40;0.60;;;;;;;25.25;43.30;99269.63;5092756;28;20032;-70
2023/08/28 09:26:38;;;;;;;2.17;0.55;;;;;;;25.26;43.57;99270.47;5092484;28;20027;-71
2023/08/28 09:29:06;;;;;;;1.52;0.40;;;;;;;25.27;43.00;99261.50;5092437;28;20077;-71
2023/08/28 09:31:34;;;;;;;2.15;0.73;;;;;;;25.26;43.48;99262.44;5092833;28;20380;-72
2023/08/28 09:34:00;;;;;;;2.10;0.60;;;;;;;25.26;43.35;99265.13;5092650;28;20016;-70
2023/08/28 09:36:25;;;;;;;1.75;0.55;;;;;;;25.25;43.23;99268.75;5092489;28;20063;-72
2023/08/28 09:38:51;;;;;;;1.38;0.60;;;;;;;25.26;43.03;99259.78;5092623;28;20048;-71
2023/08/28 09:41:17;;;;;;;1.05;0.40;;;;;;;25.26;43.16;99260.63;5090670;28;20032;-71
2023/08/28 09:43:43;;;;;;;0.70;0.47;;;;;;;25.28;43.29;99271.19;5092492;28;20069;-70
2023/08/28 09:46:08;;;;;;;1.98;0.70;;;;;;;25.26;43.33;99259.78;5091157;28;20032;-71
2023/08/28 09:48:35;;;;;;;0.98;0.40;;;;;;;25.26;43.19;99265.13;5092527;28;20035;-71
2023/08/28 09:51:06;;;;;;;1.25;0.40;;;;;;;25.26;43.24;99265.97;5092251;28;20476;-71
2023/08/28 09:53:32;;;;;;;1.83;0.50;;;;;;;25.27;43.36;99266.84;5092473;28;20043;-70
2023/08/28 09:55:57;;;;;;;1.15;0.43;;;;;;;25.25;43.45;99261.63;5091928;28;20024;-71
2023/08/28 09:58:24;;;;;;;1.52;0.40;;;;;;;25.26;43.41;99255.28;5092077;28;20020;-71
2023/08/28 10:00:51;;;;;;;0.45;0.30;;;;;;;25.25;43.47;99256.28;5092102;28;20036;-72
2023/08/28 10:03:17;;;;;;;0.82;0.30;;;;;;;25.26;43.11;99262.44;5092303;28;20385;-71
2023/08/28 10:05:44;;;;;;;1.38;0.50;;;;;;;25.26;43.39;99254.44;5092215;28;20028;-71
2023/08/28 10:08:11;;;;;;;1.50;0.50;;;;;;;25.26;43.41;99257.09;5092261;28;20392;-71
2023/08/28 10:10:38;;;;;;;1.65;0.52;;;;;;;25.25;43.52;99252.75;5107579;28;20069;-71
2023/08/28 10:13:06;;;;;;;1.38;0.45;;;;;;;25.26;43.31;99254.44;5092055;28;20032;-71
2023/08/28 10:15:33;;;;;;;1.52;0.50;;;;;;;25.26;43.17;99259.78;5092075;28;20492;-71
2023/08/28 10:18:08;;;;;;;0.82;0.30;;;;;;;25.25;43.14;99250.94;5094210;28;20110;-71
2023/08/28 10:20:35;;;;;;;0.98;0.30;;;;;;;25.26;43.31;99254.44;5096366;28;20028;-72
2023/08/28 10:23:03;;;;;;;1.13;0.43;;;;;;;25.27;43.31;99256.16;5096137;28;20028;-71
2023/08/28 10:25:29;;;;;;;0.77;0.30;;;;;;;25.27;43.51;99256.16;5095799;28;20030;-70
2023/08/28 10:27:57;;;;;;;1.60;0.50;;;;;;;25.25;43.56;99258.94;5095855;28;20161;-70
2023/08/28 10:30:26;;;;;;;1.38;0.50;;;;;;;25.27;43.24;99256.16;5096103;28;20498;-71
2023/08/28 10:32:54;;;;;;;1.25;0.22;;;;;;;25.26;43.49;99259.78;5096132;28;20395;-71
2023/08/28 10:35:21;;;;;;;0.98;0.40;;;;;;;25.28;43.30;99265.84;5095690;28;20035;-71
2023/08/28 10:37:49;;;;;;;2.03;0.63;;;;;;;25.27;43.36;99256.97;5094596;28;20588;-72
2023/08/28 10:40:17;;;;;;;0.88;0.32;;;;;;;25.27;43.35;99261.50;5095639;28;20031;-72
2023/08/28 10:42:44;;;;;;;1.50;0.40;;;;;;;25.26;43.43;99259.78;5096010;28;20032;-71
2023/08/28 10:45:10;;;;;;;1.38;0.35;;;;;;;25.26;43.44;99260.63;5111528;28;20035;-71
2023/08/28 10:47:37;;;;;;;0.60;0.30;;;;;;;25.27;43.41;99266.84;5094555;28;20020;-70
2023/08/28 10:50:06;;;;;;;0.60;0.22;;;;;;;25.29;43.30;99259.53;5095931;28;20032;-71
2023/08/28 10:52:32;;;;;;;0.82;0.40;;;;;;;25.30;43.45;99266.56;5094160;28;20028;-71
2023/08/28 10:55:05;;;;;;;0.82;0.20;;;;;;;25.29;43.30;99270.22;5095399;28;20031;-70
2023/08/28 10:57:31;;;;;;;0.50;0.20;;;;;;;25.29;43.47;99264.88;5095615;28;20020;-70
2023/08/28 11:00:01;;;;;;;0.65;0.20;;;;;;;25.29;43.30;99264.88;5095242;28;20094;-71
2023/08/28 11:03:07;;;;;;;1.08;0.50;;;;;;;25.27;43.41;99267.66;5095710;28;20030;-71
2023/08/28 11:05:33;;;;;;;0.90;0.35;;;;;;;25.28;43.54;99271.19;5095413;28;20031;-71
2023/08/28 11:08:04;;;;;;;0.80;0.38;;;;;;;25.29;43.43;99267.53;5094934;28;20023;-71
2023/08/28 11:10:30;;;;;;;0.75;0.35;;;;;;;25.28;43.65;99265.84;5095303;28;20055;-71
2023/08/28 11:13:02;;;;;;;0.93;0.43;;;;;;;25.28;43.40;99264.00;5095178;28;20035;-70
2023/08/28 11:15:31;;;;;;;1.60;0.45;;;;;;;25.30;43.35;99266.56;5095186;28;20034;-71
2023/08/28 11:18:19;;;;;;;0.60;0.30;;;;;;;25.28;43.60;99264.00;5095090;28;20020;-71
2023/08/28 11:20:51;;;;;;;0.47;0.30;;;;;;;25.28;43.53;99252.50;5095198;28;20078;-71
2023/08/28 11:23:22;;;;;;;0.80;0.40;;;;;;;25.29;43.35;99248.84;5094876;28;20442;-71
2023/08/28 11:25:47;;;;;;;1.08;0.40;;;;;;;25.30;43.67;99250.53;5095083;28;20020;-71
2023/08/28 11:28:29;;;;;;;1.15;0.40;;;;;;;25.28;43.80;99236.47;5093715;28;20047;-70
2023/08/28 11:31:04;;;;;;;0.45;0.30;;;;;;;25.28;43.68;99244.50;5094731;28;20035;-69
2023/08/28 11:33:38;;;;;;;1.60;0.50;;;;;;;25.32;43.35;99232.56;5093624;28;20068;-70